sensor_id;sensor_type;location;lat;lon;timestamp;P1;durP1;ratioP1;P2;durP2;ratioP2
21661;SDS011;10992;48.170;8.596;2023-05-02T00:01:19;13.93;;;11.85;;
21661;SDS011;10992;48.170;8.596;2023-05-02T00:03:46;14.18;;;11.88;;
21661;SDS011;10992;48.170;8.596;2023-05-02T00:06:13;15.05;;;12.57;;
21661;SDS011;10992;48.170;8.596;2023-05-02T00:08:40;17.45;;;13.73;;
21661;SDS011;10992;48.170;8.596;2023-05-02T00:11:07;18.20;;;15.43;;
21661;SDS011;10992;48.170;8.596;2023-05-02T00:13:34;19.00;;;15.63;;
21661;SDS011;10992;48.170;8.596;2023-05-02T00:16:01;21.83;;;16.73;;
21661;SDS011;10992;48.170;8.596;2023-05-02T00:18:28;19.67;;;15.23;;
21661;SDS011;10992;48.170;8.596;2023-05-02T00:20:55;21.58;;;16.90;;
21661;SDS011;10992;48.170;8.596;2023-05-02T00:23:22;21.38;;;17.45;;
21661;SDS011;10992;48.170;8.596;2023-05-02T00:25:49;18.45;;;16.17;;
21661;SDS011;10992;48.170;8.596;2023-05-02T00:28:16;20.40;;;15.52;;
21661;SDS011;10992;48.170;8.596;2023-05-02T00:30:44;17.63;;;13.75;;
21661;SDS011;10992;48.170;8.596;2023-05-02T00:33:11;18.10;;;15.23;;
21661;SDS011;10992;48.170;8.596;2023-05-02T00:35:40;16.45;;;13.80;;
21661;SDS011;10992;48.170;8.596;2023-05-02T00:38:07;18.20;;;15.27;;
21661;SDS011;10992;48.170;8.596;2023-05-02T00:40:41;19.00;;;14.20;;
21661;SDS011;10992;48.170;8.596;2023-05-02T00:43:13;16.80;;;14.80;;
21661;SDS011;10992;48.170;8.596;2023-05-02T00:45:41;18.02;;;14.63;;
21661;SDS011;10992;48.170;8.596;2023-05-02T00:48:09;21.23;;;15.25;;
21661;SDS011;10992;48.170;8.596;2023-05-02T00:50:41;18.33;;;15.32;;
21661;SDS011;10992;48.170;8.596;2023-05-02T00:53:09;19.98;;;17.35;;
21661;SDS011;10992;48.170;8.596;2023-05-02T00:55:36;20.00;;;16.77;;
21661;SDS011;10992;48.170;8.596;2023-05-02T00:58:05;21.67;;;17.25;;
21661;SDS011;10992;48.170;8.596;2023-05-02T01:06:23;19.60;;;15.60;;
21661;SDS011;10992;48.170;8.596;2023-05-02T01:14:24;20.80;;;17.67;;
21661;SDS011;10992;48.170;8.596;2023-05-02T01:16:55;20.15;;;17.08;;
21661;SDS011;10992;48.170;8.596;2023-05-02T01:19:37;20.10;;;16.70;;
21661;SDS011;10992;48.170;8.596;2023-05-02T01:22:07;24.88;;;18.45;;
21661;SDS011;10992;48.170;8.596;2023-05-02T01:30:19;22.02;;;16.75;;
21661;SDS011;10992;48.170;8.596;2023-05-02T01:32:48;21.50;;;17.45;;
21661;SDS011;10992;48.170;8.596;2023-05-02T01:35:17;21.55;;;17.23;;
21661;SDS011;10992;48.170;8.596;2023-05-02T01:37:46;23.05;;;17.73;;
21661;SDS011;10992;48.170;8.596;2023-05-02T01:40:16;22.50;;;18.42;;
21661;SDS011;10992;48.170;8.596;2023-05-02T01:42:46;26.77;;;18.85;;
21661;SDS011;10992;48.170;8.596;2023-05-02T01:45:15;25.23;;;19.30;;
21661;SDS011;10992;48.170;8.596;2023-05-02T01:47:44;25.15;;;18.17;;
21661;SDS011;10992;48.170;8.596;2023-05-02T01:50:12;28.85;;;19.92;;
21661;SDS011;10992;48.170;8.596;2023-05-02T01:52:42;29.08;;;20.52;;
21661;SDS011;10992;48.170;8.596;2023-05-02T01:55:12;26.05;;;21.15;;
21661;SDS011;10992;48.170;8.596;2023-05-02T01:57:42;27.73;;;20.13;;
21661;SDS011;10992;48.170;8.596;2023-05-02T02:00:12;29.08;;;21.23;;
21661;SDS011;10992;48.170;8.596;2023-05-02T02:02:43;26.05;;;19.40;;
21661;SDS011;10992;48.170;8.596;2023-05-02T02:05:12;23.17;;;17.48;;
21661;SDS011;10992;48.170;8.596;2023-05-02T02:07:41;20.00;;;16.13;;
21661;SDS011;10992;48.170;8.596;2023-05-02T02:10:09;18.20;;;15.55;;
21661;SDS011;10992;48.170;8.596;2023-05-02T02:12:41;18.90;;;14.65;;
21661;SDS011;10992;48.170;8.596;2023-05-02T02:15:26;19.65;;;15.73;;
21661;SDS011;10992;48.170;8.596;2023-05-02T02:17:56;18.63;;;15.07;;
21661;SDS011;10992;48.170;8.596;2023-05-02T02:20:29;23.08;;;16.42;;
21661;SDS011;10992;48.170;8.596;2023-05-02T02:22:57;20.15;;;15.90;;
21661;SDS011;10992;48.170;8.596;2023-05-02T02:25:28;21.20;;;15.48;;
21661;SDS011;10992;48.170;8.596;2023-05-02T02:27:56;19.25;;;15.80;;
21661;SDS011;10992;48.170;8.596;2023-05-02T02:30:23;21.30;;;16.85;;
21661;SDS011;10992;48.170;8.596;2023-05-02T02:32:50;23.25;;;17.70;;
21661;SDS011;10992;48.170;8.596;2023-05-02T02:35:18;24.05;;;17.83;;
21661;SDS011;10992;48.170;8.596;2023-05-02T02:40:44;26.15;;;18.45;;
21661;SDS011;10992;48.170;8.596;2023-05-02T02:44:13;25.40;;;18.83;;
21661;SDS011;10992;48.170;8.596;2023-05-02T02:48:57;24.63;;;18.73;;
21661;SDS011;10992;48.170;8.596;2023-05-02T02:51:39;24.60;;;18.30;;
21661;SDS011;10992;48.170;8.596;2023-05-02T02:54:19;27.23;;;20.08;;
21661;SDS011;10992;48.170;8.596;2023-05-02T02:57:00;25.90;;;18.45;;
21661;SDS011;10992;48.170;8.596;2023-05-02T02:59:33;25.73;;;19.38;;
21661;SDS011;10992;48.170;8.596;2023-05-02T03:02:07;27.00;;;20.77;;
21661;SDS011;10992;48.170;8.596;2023-05-02T03:04:37;26.33;;;20.10;;
21661;SDS011;10992;48.170;8.596;2023-05-02T03:07:06;26.30;;;18.90;;
21661;SDS011;10992;48.170;8.596;2023-05-02T03:09:43;24.73;;;19.45;;
21661;SDS011;10992;48.170;8.596;2023-05-02T03:12:16;26.30;;;19.77;;
21661;SDS011;10992;48.170;8.596;2023-05-02T03:14:43;26.33;;;20.17;;
21661;SDS011;10992;48.170;8.596;2023-05-02T03:17:11;25.23;;;19.15;;
21661;SDS011;10992;48.170;8.596;2023-05-02T03:19:39;27.95;;;20.13;;
21661;SDS011;10992;48.170;8.596;2023-05-02T03:22:06;25.98;;;19.17;;
21661;SDS011;10992;48.170;8.596;2023-05-02T03:24:35;23.70;;;18.65;;
21661;SDS011;10992;48.170;8.596;2023-05-02T03:27:03;23.73;;;17.50;;
21661;SDS011;10992;48.170;8.596;2023-05-02T03:29:37;26.60;;;19.63;;
21661;SDS011;10992;48.170;8.596;2023-05-02T03:32:04;28.33;;;19.30;;
21661;SDS011;10992;48.170;8.596;2023-05-02T03:34:31;30.75;;;20.48;;
21661;SDS011;10992;48.170;8.596;2023-05-02T03:36:59;29.20;;;21.67;;
21661;SDS011;10992;48.170;8.596;2023-05-02T03:39:27;33.95;;;21.17;;
21661;SDS011;10992;48.170;8.596;2023-05-02T03:41:54;29.92;;;22.60;;
21661;SDS011;10992;48.170;8.596;2023-05-02T03:44:22;30.98;;;22.20;;
21661;SDS011;10992;48.170;8.596;2023-05-02T03:46:50;32.30;;;22.63;;
21661;SDS011;10992;48.170;8.596;2023-05-02T03:49:18;29.40;;;21.52;;
21661;SDS011;10992;48.170;8.596;2023-05-02T03:51:47;35.40;;;22.63;;
21661;SDS011;10992;48.170;8.596;2023-05-02T03:54:19;28.48;;;20.25;;
21661;SDS011;10992;48.170;8.596;2023-05-02T03:56:46;29.35;;;20.25;;
21661;SDS011;10992;48.170;8.596;2023-05-02T03:59:21;29.67;;;21.13;;
21661;SDS011;10992;48.170;8.596;2023-05-02T04:01:49;29.65;;;22.38;;
21661;SDS011;10992;48.170;8.596;2023-05-02T04:04:20;34.78;;;23.17;;
21661;SDS011;10992;48.170;8.596;2023-05-02T04:06:50;31.10;;;22.02;;
21661;SDS011;10992;48.170;8.596;2023-05-02T04:09:17;29.70;;;22.13;;
21661;SDS011;10992;48.170;8.596;2023-05-02T04:11:52;33.63;;;22.13;;
21661;SDS011;10992;48.170;8.596;2023-05-02T04:14:19;37.83;;;24.77;;
21661;SDS011;10992;48.170;8.596;2023-05-02T04:16:49;34.00;;;23.90;;
21661;SDS011;10992;48.170;8.596;2023-05-02T04:19:22;37.03;;;24.58;;
21661;SDS011;10992;48.170;8.596;2023-05-02T04:21:49;33.03;;;24.33;;
21661;SDS011;10992;48.170;8.596;2023-05-02T04:24:16;38.28;;;24.92;;
21661;SDS011;10992;48.170;8.596;2023-05-02T04:26:44;41.35;;;26.27;;
21661;SDS011;10992;48.170;8.596;2023-05-02T04:29:13;40.05;;;24.92;;
21661;SDS011;10992;48.170;8.596;2023-05-02T04:31:41;44.95;;;29.42;;
21661;SDS011;10992;48.170;8.596;2023-05-02T04:34:09;41.53;;;29.10;;
21661;SDS011;10992;48.170;8.596;2023-05-02T04:36:44;47.95;;;31.42;;
21661;SDS011;10992;48.170;8.596;2023-05-02T04:39:17;51.78;;;33.17;;
21661;SDS011;10992;48.170;8.596;2023-05-02T04:41:54;50.78;;;34.35;;
21661;SDS011;10992;48.170;8.596;2023-05-02T04:44:24;53.53;;;33.83;;
21661;SDS011;10992;48.170;8.596;2023-05-02T04:46:52;52.13;;;34.40;;
21661;SDS011;10992;48.170;8.596;2023-05-02T04:49:22;45.25;;;34.78;;
21661;SDS011;10992;48.170;8.596;2023-05-02T04:51:49;48.70;;;33.67;;
21661;SDS011;10992;48.170;8.596;2023-05-02T04:54:19;47.50;;;31.33;;
21661;SDS011;10992;48.170;8.596;2023-05-02T04:56:46;48.47;;;33.15;;
21661;SDS011;10992;48.170;8.596;2023-05-02T04:59:13;41.65;;;30.42;;
21661;SDS011;10992;48.170;8.596;2023-05-02T05:01:40;29.95;;;23.33;;
21661;SDS011;10992;48.170;8.596;2023-05-02T05:04:08;29.30;;;21.77;;
21661;SDS011;10992;48.170;8.596;2023-05-02T05:06:35;27.27;;;21.25;;
21661;SDS011;10992;48.170;8.596;2023-05-02T05:09:03;29.45;;;22.15;;
21661;SDS011;10992;48.170;8.596;2023-05-02T05:11:33;30.33;;;23.30;;
21661;SDS011;10992;48.170;8.596;2023-05-02T05:14:00;29.52;;;22.35;;
21661;SDS011;10992;48.170;8.596;2023-05-02T05:16:34;29.33;;;22.25;;
21661;SDS011;10992;48.170;8.596;2023-05-02T05:19:03;24.88;;;20.23;;
21661;SDS011;10992;48.170;8.596;2023-05-02T05:21:30;27.33;;;20.60;;
21661;SDS011;10992;48.170;8.596;2023-05-02T05:23:59;23.92;;;18.65;;
21661;SDS011;10992;48.170;8.596;2023-05-02T05:26:27;27.77;;;19.63;;
21661;SDS011;10992;48.170;8.596;2023-05-02T05:28:54;21.45;;;18.45;;
21661;SDS011;10992;48.170;8.596;2023-05-02T05:31:24;22.08;;;15.95;;
21661;SDS011;10992;48.170;8.596;2023-05-02T05:33:55;15.13;;;13.52;;
21661;SDS011;10992;48.170;8.596;2023-05-02T05:36:24;15.07;;;11.93;;
21661;SDS011;10992;48.170;8.596;2023-05-02T05:38:51;11.70;;;9.93;;
21661;SDS011;10992;48.170;8.596;2023-05-02T05:41:21;13.88;;;11.60;;
21661;SDS011;10992;48.170;8.596;2023-05-02T05:43:53;14.13;;;11.10;;
21661;SDS011;10992;48.170;8.596;2023-05-02T05:46:23;12.60;;;10.68;;
21661;SDS011;10992;48.170;8.596;2023-05-02T05:48:50;11.82;;;10.32;;
21661;SDS011;10992;48.170;8.596;2023-05-02T05:51:17;13.07;;;11.68;;
21661;SDS011;10992;48.170;8.596;2023-05-02T05:53:45;14.93;;;11.90;;
21661;SDS011;10992;48.170;8.596;2023-05-02T05:56:13;16.52;;;13.43;;
21661;SDS011;10992;48.170;8.596;2023-05-02T05:58:46;17.10;;;13.63;;
21661;SDS011;10992;48.170;8.596;2023-05-02T06:01:13;18.10;;;14.57;;
21661;SDS011;10992;48.170;8.596;2023-05-02T06:03:40;16.42;;;13.65;;
21661;SDS011;10992;48.170;8.596;2023-05-02T06:06:08;14.20;;;12.52;;
21661;SDS011;10992;48.170;8.596;2023-05-02T06:08:35;15.27;;;12.77;;
21661;SDS011;10992;48.170;8.596;2023-05-02T06:11:07;13.70;;;12.25;;
21661;SDS011;10992;48.170;8.596;2023-05-02T06:13:36;16.30;;;13.48;;
21661;SDS011;10992;48.170;8.596;2023-05-02T06:16:03;15.68;;;13.98;;
21661;SDS011;10992;48.170;8.596;2023-05-02T06:18:31;16.05;;;11.75;;
21661;SDS011;10992;48.170;8.596;2023-05-02T06:21:02;13.88;;;12.48;;
21661;SDS011;10992;48.170;8.596;2023-05-02T06:23:32;14.80;;;12.77;;
21661;SDS011;10992;48.170;8.596;2023-05-02T06:26:00;16.35;;;13.93;;
21661;SDS011;10992;48.170;8.596;2023-05-02T06:28:29;16.85;;;13.57;;
21661;SDS011;10992;48.170;8.596;2023-05-02T06:30:59;15.75;;;14.07;;
21661;SDS011;10992;48.170;8.596;2023-05-02T06:33:29;16.80;;;14.73;;
21661;SDS011;10992;48.170;8.596;2023-05-02T06:35:56;19.27;;;15.18;;
21661;SDS011;10992;48.170;8.596;2023-05-02T06:38:26;17.60;;;14.35;;
21661;SDS011;10992;48.170;8.596;2023-05-02T06:40:54;17.10;;;14.45;;
21661;SDS011;10992;48.170;8.596;2023-05-02T06:43:21;15.80;;;13.93;;
21661;SDS011;10992;48.170;8.596;2023-05-02T06:45:48;17.40;;;13.50;;
21661;SDS011;10992;48.170;8.596;2023-05-02T06:48:18;15.43;;;12.93;;
21661;SDS011;10992;48.170;8.596;2023-05-02T06:50:52;18.15;;;14.35;;
21661;SDS011;10992;48.170;8.596;2023-05-02T06:53:22;16.10;;;13.23;;
21661;SDS011;10992;48.170;8.596;2023-05-02T06:55:48;14.32;;;11.88;;
21661;SDS011;10992;48.170;8.596;2023-05-02T06:58:16;13.30;;;10.88;;
21661;SDS011;10992;48.170;8.596;2023-05-02T07:00:42;14.10;;;12.48;;
21661;SDS011;10992;48.170;8.596;2023-05-02T07:03:10;12.52;;;10.73;;
21661;SDS011;10992;48.170;8.596;2023-05-02T07:05:36;12.80;;;9.82;;
21661;SDS011;10992;48.170;8.596;2023-05-02T07:08:03;12.50;;;10.27;;
21661;SDS011;10992;48.170;8.596;2023-05-02T07:10:30;10.32;;;9.15;;
21661;SDS011;10992;48.170;8.596;2023-05-02T07:12:57;10.68;;;9.05;;
21661;SDS011;10992;48.170;8.596;2023-05-02T07:15:24;10.23;;;9.23;;
21661;SDS011;10992;48.170;8.596;2023-05-02T07:17:51;11.05;;;9.18;;
21661;SDS011;10992;48.170;8.596;2023-05-02T07:20:18;13.23;;;10.13;;
21661;SDS011;10992;48.170;8.596;2023-05-02T07:22:45;9.88;;;8.88;;
21661;SDS011;10992;48.170;8.596;2023-05-02T07:25:12;11.00;;;9.80;;
21661;SDS011;10992;48.170;8.596;2023-05-02T07:27:42;12.07;;;9.32;;
21661;SDS011;10992;48.170;8.596;2023-05-02T07:30:09;11.75;;;9.40;;
21661;SDS011;10992;48.170;8.596;2023-05-02T07:32:37;10.05;;;8.95;;
21661;SDS011;10992;48.170;8.596;2023-05-02T07:35:04;9.70;;;8.70;;
21661;SDS011;10992;48.170;8.596;2023-05-02T07:37:32;8.82;;;7.82;;
21661;SDS011;10992;48.170;8.596;2023-05-02T07:40:02;7.95;;;7.13;;
21661;SDS011;10992;48.170;8.596;2023-05-02T07:42:30;6.95;;;6.25;;
21661;SDS011;10992;48.170;8.596;2023-05-02T07:44:57;7.30;;;6.20;;
21661;SDS011;10992;48.170;8.596;2023-05-02T07:47:24;7.32;;;6.38;;
21661;SDS011;10992;48.170;8.596;2023-05-02T07:49:52;6.90;;;6.15;;
21661;SDS011;10992;48.170;8.596;2023-05-02T07:52:21;7.50;;;6.75;;
21661;SDS011;10992;48.170;8.596;2023-05-02T07:54:48;7.15;;;6.45;;
21661;SDS011;10992;48.170;8.596;2023-05-02T07:57:15;6.80;;;6.20;;
21661;SDS011;10992;48.170;8.596;2023-05-02T07:59:42;7.50;;;6.55;;
21661;SDS011;10992;48.170;8.596;2023-05-02T08:02:09;8.50;;;7.60;;
21661;SDS011;10992;48.170;8.596;2023-05-02T08:04:39;7.20;;;6.50;;
21661;SDS011;10992;48.170;8.596;2023-05-02T08:07:06;7.70;;;6.78;;
21661;SDS011;10992;48.170;8.596;2023-05-02T08:09:33;9.35;;;8.30;;
21661;SDS011;10992;48.170;8.596;2023-05-02T08:12:00;7.95;;;7.15;;
21661;SDS011;10992;48.170;8.596;2023-05-02T08:14:30;8.52;;;7.45;;
21661;SDS011;10992;48.170;8.596;2023-05-02T08:16:58;9.82;;;8.10;;
21661;SDS011;10992;48.170;8.596;2023-05-02T08:19:25;8.88;;;7.97;;
21661;SDS011;10992;48.170;8.596;2023-05-02T08:21:53;10.40;;;8.55;;
21661;SDS011;10992;48.170;8.596;2023-05-02T08:24:20;9.45;;;8.50;;
21661;SDS011;10992;48.170;8.596;2023-05-02T08:26:47;9.35;;;8.45;;
21661;SDS011;10992;48.170;8.596;2023-05-02T08:29:14;8.70;;;7.80;;
21661;SDS011;10992;48.170;8.596;2023-05-02T08:31:41;8.98;;;8.05;;
21661;SDS011;10992;48.170;8.596;2023-05-02T08:34:08;8.20;;;7.35;;
21661;SDS011;10992;48.170;8.596;2023-05-02T08:36:35;7.88;;;7.10;;
21661;SDS011;10992;48.170;8.596;2023-05-02T08:39:02;8.40;;;7.50;;
21661;SDS011;10992;48.170;8.596;2023-05-02T08:41:29;9.68;;;8.32;;
21661;SDS011;10992;48.170;8.596;2023-05-02T08:43:56;8.40;;;7.13;;
21661;SDS011;10992;48.170;8.596;2023-05-02T08:46:24;9.45;;;7.30;;
21661;SDS011;10992;48.170;8.596;2023-05-02T08:48:52;8.07;;;7.28;;
21661;SDS011;10992;48.170;8.596;2023-05-02T08:51:20;9.50;;;8.50;;
21661;SDS011;10992;48.170;8.596;2023-05-02T08:53:49;9.93;;;8.93;;
21661;SDS011;10992;48.170;8.596;2023-05-02T08:56:17;10.10;;;8.68;;
21661;SDS011;10992;48.170;8.596;2023-05-02T08:58:44;11.55;;;8.63;;
21661;SDS011;10992;48.170;8.596;2023-05-02T09:01:15;9.55;;;8.52;;
21661;SDS011;10992;48.170;8.596;2023-05-02T09:03:43;9.35;;;8.30;;
21661;SDS011;10992;48.170;8.596;2023-05-02T09:06:12;9.50;;;8.50;;
21661;SDS011;10992;48.170;8.596;2023-05-02T09:08:44;8.40;;;7.57;;
21661;SDS011;10992;48.170;8.596;2023-05-02T09:11:20;8.18;;;7.38;;
21661;SDS011;10992;48.170;8.596;2023-05-02T09:13:50;10.05;;;7.38;;
21661;SDS011;10992;48.170;8.596;2023-05-02T09:16:21;8.20;;;7.40;;
21661;SDS011;10992;48.170;8.596;2023-05-02T09:18:52;9.15;;;7.80;;
21661;SDS011;10992;48.170;8.596;2023-05-02T09:21:20;10.77;;;9.35;;
21661;SDS011;10992;48.170;8.596;2023-05-02T09:26:18;11.73;;;10.38;;
21661;SDS011;10992;48.170;8.596;2023-05-02T09:28:54;11.07;;;9.98;;
21661;SDS011;10992;48.170;8.596;2023-05-02T09:31:25;13.07;;;10.27;;
21661;SDS011;10992;48.170;8.596;2023-05-02T09:34:15;13.68;;;10.82;;
21661;SDS011;10992;48.170;8.596;2023-05-02T09:36:46;12.02;;;9.88;;
21661;SDS011;10992;48.170;8.596;2023-05-02T09:39:23;12.25;;;9.95;;
21661;SDS011;10992;48.170;8.596;2023-05-02T09:41:52;10.43;;;9.32;;
21661;SDS011;10992;48.170;8.596;2023-05-02T09:44:21;12.98;;;9.70;;
21661;SDS011;10992;48.170;8.596;2023-05-02T09:46:50;11.40;;;9.95;;
21661;SDS011;10992;48.170;8.596;2023-05-02T09:49:18;12.43;;;10.52;;
21661;SDS011;10992;48.170;8.596;2023-05-02T09:51:46;12.82;;;9.80;;
21661;SDS011;10992;48.170;8.596;2023-05-02T09:57:01;11.60;;;10.10;;
21661;SDS011;10992;48.170;8.596;2023-05-02T09:59:28;14.23;;;9.95;;
21661;SDS011;10992;48.170;8.596;2023-05-02T10:01:56;11.13;;;9.43;;
21661;SDS011;10992;48.170;8.596;2023-05-02T10:04:25;11.70;;;9.80;;
21661;SDS011;10992;48.170;8.596;2023-05-02T10:06:54;9.75;;;8.70;;
21661;SDS011;10992;48.170;8.596;2023-05-02T10:09:21;12.57;;;9.25;;
21661;SDS011;10992;48.170;8.596;2023-05-02T10:11:52;9.55;;;8.63;;
21661;SDS011;10992;48.170;8.596;2023-05-02T10:14:20;10.77;;;9.52;;
21661;SDS011;10992;48.170;8.596;2023-05-02T10:16:59;10.60;;;9.38;;
21661;SDS011;10992;48.170;8.596;2023-05-02T10:22:18;11.63;;;10.05;;
21661;SDS011;10992;48.170;8.596;2023-05-02T10:24:48;11.40;;;10.15;;
21661;SDS011;10992;48.170;8.596;2023-05-02T10:27:16;10.15;;;8.85;;
21661;SDS011;10992;48.170;8.596;2023-05-02T10:29:43;11.77;;;10.07;;
21661;SDS011;10992;48.170;8.596;2023-05-02T10:32:12;10.73;;;9.60;;
21661;SDS011;10992;48.170;8.596;2023-05-02T10:34:40;13.43;;;10.60;;
21661;SDS011;10992;48.170;8.596;2023-05-02T10:37:07;12.77;;;10.35;;
21661;SDS011;10992;48.170;8.596;2023-05-02T10:39:34;11.82;;;9.40;;
21661;SDS011;10992;48.170;8.596;2023-05-02T10:42:02;12.25;;;9.63;;
21661;SDS011;10992;48.170;8.596;2023-05-02T10:44:34;11.27;;;9.20;;
21661;SDS011;10992;48.170;8.596;2023-05-02T10:49:59;11.20;;;8.48;;
21661;SDS011;10992;48.170;8.596;2023-05-02T10:52:31;11.20;;;8.50;;
21661;SDS011;10992;48.170;8.596;2023-05-02T11:00:27;9.27;;;8.35;;
21661;SDS011;10992;48.170;8.596;2023-05-02T11:02:55;9.65;;;8.57;;
21661;SDS011;10992;48.170;8.596;2023-05-02T11:05:24;11.15;;;9.75;;
21661;SDS011;10992;48.170;8.596;2023-05-02T11:10:42;11.23;;;9.82;;
21661;SDS011;10992;48.170;8.596;2023-05-02T11:13:11;12.82;;;8.98;;
21661;SDS011;10992;48.170;8.596;2023-05-02T11:18:08;9.25;;;8.35;;
21661;SDS011;10992;48.170;8.596;2023-05-02T11:20:39;9.88;;;7.88;;
21661;SDS011;10992;48.170;8.596;2023-05-02T11:25:53;10.20;;;7.57;;
21661;SDS011;10992;48.170;8.596;2023-05-02T11:31:04;9.35;;;8.40;;
21661;SDS011;10992;48.170;8.596;2023-05-02T11:33:32;10.85;;;8.93;;
21661;SDS011;10992;48.170;8.596;2023-05-02T11:35:59;10.60;;;9.25;;
21661;SDS011;10992;48.170;8.596;2023-05-02T11:38:35;12.55;;;9.18;;
21661;SDS011;10992;48.170;8.596;2023-05-02T11:41:03;9.98;;;8.98;;
21661;SDS011;10992;48.170;8.596;2023-05-02T11:43:30;10.02;;;8.15;;
21661;SDS011;10992;48.170;8.596;2023-05-02T11:45:58;8.57;;;7.65;;
21661;SDS011;10992;48.170;8.596;2023-05-02T11:48:27;10.25;;;9.00;;
21661;SDS011;10992;48.170;8.596;2023-05-02T11:50:57;11.38;;;8.98;;
21661;SDS011;10992;48.170;8.596;2023-05-02T11:53:30;8.85;;;7.95;;
21661;SDS011;10992;48.170;8.596;2023-05-02T11:55:59;8.35;;;7.55;;
21661;SDS011;10992;48.170;8.596;2023-05-02T11:58:30;8.57;;;7.63;;
21661;SDS011;10992;48.170;8.596;2023-05-02T12:01:09;10.15;;;8.98;;
21661;SDS011;10992;48.170;8.596;2023-05-02T12:03:38;10.55;;;8.63;;
21661;SDS011;10992;48.170;8.596;2023-05-02T12:06:10;11.25;;;9.30;;
21661;SDS011;10992;48.170;8.596;2023-05-02T12:08:42;10.70;;;8.57;;
21661;SDS011;10992;48.170;8.596;2023-05-02T12:11:13;9.48;;;8.27;;
21661;SDS011;10992;48.170;8.596;2023-05-02T12:13:45;10.98;;;9.88;;
21661;SDS011;10992;48.170;8.596;2023-05-02T12:16:13;10.57;;;9.48;;
21661;SDS011;10992;48.170;8.596;2023-05-02T12:18:41;11.77;;;9.50;;
21661;SDS011;10992;48.170;8.596;2023-05-02T12:21:08;10.18;;;9.18;;
21661;SDS011;10992;48.170;8.596;2023-05-02T12:23:35;10.02;;;9.07;;
21661;SDS011;10992;48.170;8.596;2023-05-02T12:26:21;12.75;;;10.55;;
21661;SDS011;10992;48.170;8.596;2023-05-02T12:28:58;12.90;;;10.80;;
21661;SDS011;10992;48.170;8.596;2023-05-02T12:31:27;10.80;;;9.68;;
21661;SDS011;10992;48.170;8.596;2023-05-02T12:33:56;10.95;;;9.85;;
21661;SDS011;10992;48.170;8.596;2023-05-02T12:36:25;10.68;;;9.23;;
21661;SDS011;10992;48.170;8.596;2023-05-02T12:38:57;8.65;;;7.85;;
21661;SDS011;10992;48.170;8.596;2023-05-02T12:41:32;7.53;;;6.53;;
21661;SDS011;10992;48.170;8.596;2023-05-02T12:44:00;7.68;;;6.60;;
21661;SDS011;10992;48.170;8.596;2023-05-02T12:46:28;6.63;;;5.93;;
21661;SDS011;10992;48.170;8.596;2023-05-02T12:49:00;7.97;;;5.45;;
21661;SDS011;10992;48.170;8.596;2023-05-02T12:51:38;6.75;;;5.20;;
21661;SDS011;10992;48.170;8.596;2023-05-02T12:54:05;7.53;;;5.75;;
21661;SDS011;10992;48.170;8.596;2023-05-02T12:56:39;6.93;;;6.22;;
21661;SDS011;10992;48.170;8.596;2023-05-02T12:59:06;6.53;;;5.72;;
21661;SDS011;10992;48.170;8.596;2023-05-02T13:01:34;8.65;;;7.75;;
21661;SDS011;10992;48.170;8.596;2023-05-02T13:04:01;11.15;;;8.60;;
21661;SDS011;10992;48.170;8.596;2023-05-02T13:06:28;7.95;;;7.10;;
21661;SDS011;10992;48.170;8.596;2023-05-02T13:08:56;8.13;;;7.22;;
21661;SDS011;10992;48.170;8.596;2023-05-02T13:11:23;9.00;;;8.10;;
21661;SDS011;10992;48.170;8.596;2023-05-02T13:13:50;8.90;;;7.35;;
21661;SDS011;10992;48.170;8.596;2023-05-02T13:16:17;8.68;;;6.80;;
21661;SDS011;10992;48.170;8.596;2023-05-02T13:18:44;8.23;;;7.15;;
21661;SDS011;10992;48.170;8.596;2023-05-02T13:21:13;10.10;;;8.70;;
21661;SDS011;10992;48.170;8.596;2023-05-02T13:23:40;8.80;;;7.93;;
21661;SDS011;10992;48.170;8.596;2023-05-02T13:26:07;9.25;;;7.63;;
21661;SDS011;10992;48.170;8.596;2023-05-02T13:28:34;8.90;;;7.25;;
21661;SDS011;10992;48.170;8.596;2023-05-02T13:31:02;9.65;;;8.48;;
21661;SDS011;10992;48.170;8.596;2023-05-02T13:33:29;10.73;;;8.98;;
21661;SDS011;10992;48.170;8.596;2023-05-02T13:35:57;10.45;;;9.15;;
21661;SDS011;10992;48.170;8.596;2023-05-02T13:38:24;11.00;;;8.95;;
21661;SDS011;10992;48.170;8.596;2023-05-02T13:40:51;11.30;;;8.85;;
21661;SDS011;10992;48.170;8.596;2023-05-02T13:43:19;8.75;;;7.68;;
21661;SDS011;10992;48.170;8.596;2023-05-02T13:45:46;13.35;;;8.77;;
21661;SDS011;10992;48.170;8.596;2023-05-02T13:48:14;9.38;;;8.48;;
21661;SDS011;10992;48.170;8.596;2023-05-02T13:50:41;13.07;;;8.63;;
21661;SDS011;10992;48.170;8.596;2023-05-02T13:53:08;13.77;;;11.05;;
21661;SDS011;10992;48.170;8.596;2023-05-02T13:55:35;12.77;;;10.30;;
21661;SDS011;10992;48.170;8.596;2023-05-02T13:58:02;13.13;;;11.70;;
21661;SDS011;10992;48.170;8.596;2023-05-02T14:00:29;12.57;;;10.68;;
21661;SDS011;10992;48.170;8.596;2023-05-02T14:02:56;12.18;;;10.93;;
21661;SDS011;10992;48.170;8.596;2023-05-02T14:05:23;11.90;;;10.60;;
21661;SDS011;10992;48.170;8.596;2023-05-02T14:07:50;11.70;;;10.50;;
21661;SDS011;10992;48.170;8.596;2023-05-02T14:10:17;11.23;;;9.75;;
21661;SDS011;10992;48.170;8.596;2023-05-02T14:12:44;13.45;;;7.63;;
21661;SDS011;10992;48.170;8.596;2023-05-02T14:15:11;8.50;;;7.43;;
21661;SDS011;10992;48.170;8.596;2023-05-02T14:17:38;8.93;;;7.35;;
21661;SDS011;10992;48.170;8.596;2023-05-02T14:20:05;8.48;;;6.53;;
21661;SDS011;10992;48.170;8.596;2023-05-02T14:22:35;7.90;;;6.20;;
21661;SDS011;10992;48.170;8.596;2023-05-02T14:25:02;7.28;;;6.05;;
21661;SDS011;10992;48.170;8.596;2023-05-02T14:27:30;5.82;;;4.95;;
21661;SDS011;10992;48.170;8.596;2023-05-02T14:29:57;7.95;;;5.10;;
21661;SDS011;10992;48.170;8.596;2023-05-02T14:32:24;6.00;;;4.43;;
21661;SDS011;10992;48.170;8.596;2023-05-02T14:34:51;4.28;;;3.88;;
21661;SDS011;10992;48.170;8.596;2023-05-02T14:37:18;4.15;;;3.75;;
21661;SDS011;10992;48.170;8.596;2023-05-02T14:39:45;4.97;;;3.83;;
21661;SDS011;10992;48.170;8.596;2023-05-02T14:42:17;5.63;;;5.05;;
21661;SDS011;10992;48.170;8.596;2023-05-02T14:44:44;7.15;;;5.22;;
21661;SDS011;10992;48.170;8.596;2023-05-02T14:47:11;7.43;;;6.20;;
21661;SDS011;10992;48.170;8.596;2023-05-02T14:49:38;8.10;;;7.22;;
21661;SDS011;10992;48.170;8.596;2023-05-02T14:52:05;8.80;;;7.88;;
21661;SDS011;10992;48.170;8.596;2023-05-02T14:54:32;8.57;;;7.75;;
21661;SDS011;10992;48.170;8.596;2023-05-02T14:56:59;9.65;;;8.60;;
21661;SDS011;10992;48.170;8.596;2023-05-02T14:59:29;8.43;;;7.50;;
21661;SDS011;10992;48.170;8.596;2023-05-02T15:01:56;8.73;;;7.30;;
21661;SDS011;10992;48.170;8.596;2023-05-02T15:04:23;7.10;;;6.40;;
21661;SDS011;10992;48.170;8.596;2023-05-02T15:06:53;6.70;;;6.00;;
21661;SDS011;10992;48.170;8.596;2023-05-02T15:09:21;6.65;;;5.82;;
21661;SDS011;10992;48.170;8.596;2023-05-02T15:11:48;6.10;;;5.32;;
21661;SDS011;10992;48.170;8.596;2023-05-02T15:14:15;6.05;;;5.45;;
21661;SDS011;10992;48.170;8.596;2023-05-02T15:16:42;6.97;;;6.28;;
21661;SDS011;10992;48.170;8.596;2023-05-02T15:19:09;6.93;;;5.68;;
21661;SDS011;10992;48.170;8.596;2023-05-02T15:21:36;7.85;;;6.05;;
21661;SDS011;10992;48.170;8.596;2023-05-02T15:24:04;7.53;;;6.60;;
21661;SDS011;10992;48.170;8.596;2023-05-02T15:26:32;8.30;;;6.93;;
21661;SDS011;10992;48.170;8.596;2023-05-02T15:28:59;8.00;;;7.13;;
21661;SDS011;10992;48.170;8.596;2023-05-02T15:31:26;8.52;;;7.07;;